Terminal Aerodrome Forecast
Issued by NWS

Home | Current Version | Previous Version | Text Only | Print | Product List | Glossary On
Versions: 1 2 3 4 5 6 7 8 9 10 11 12 13 14 15
000
FTUS45 KABQ 181700
TAFTCC
TAF
KTCC 181739Z 1818/1918 26015G24KT P6SM BKN100
     FM182000 27016G28KT P6SM SCT100
     FM190300 34008KT P6SM SCT120
     FM191400 36023G33KT P6SM SCT070=

USA.gov is the U.S. government's official web portal to all federal, state and local government web resources and services.